Time;durP1;ratioP1;P1;durP2;ratioP2;P2;SDS_P1;SDS_P2;PMS_P1;PMS_P2;Temp;Humidity;BMP_temperature;BMP_pressure;BME280_temperature;BME280_humidity;BME280_pressure;Samples;Min_cycle;Max_cycle;Signal;HPM_P1;HPM_P2
2022/07/06 00:00:57;;;;;;;10.23;4.27;;;;;;;26.88;36.47;100228.32;123584;1099;104302;-79
2022/07/06 00:03:28;;;;;;;15.23;4.73;;;;;;;26.83;36.46;100224.02;123746;1099;104226;-79
2022/07/06 00:06:00;;;;;;;11.50;4.17;;;;;;;26.81;36.61;100213.31;123722;1097;104232;-79
2022/07/06 00:08:32;;;;;;;14.17;4.87;;;;;;;26.75;36.87;100213.53;123529;1099;104261;-80
2022/07/06 00:11:04;;;;;;;15.70;4.40;;;;;;;26.72;37.10;100217.23;123522;1098;104364;-78
2022/07/06 00:13:35;;;;;;;17.03;5.20;;;;;;;26.70;36.81;100215.52;123480;1099;104866;-78
2022/07/06 00:16:07;;;;;;;8.60;4.30;;;;;;;26.67;37.32;100216.50;123544;1097;104264;-79
2022/07/06 00:18:38;;;;;;;10.23;4.63;;;;;;;26.64;36.82;100218.39;123544;1099;104453;-79
2022/07/06 00:21:10;;;;;;;12.33;5.10;;;;;;;26.61;37.54;100211.30;123473;1099;104392;-78
2022/07/06 00:23:41;;;;;;;9.23;4.80;;;;;;;26.61;36.92;100210.43;123492;1097;104370;-79
2022/07/06 00:26:13;;;;;;;10.00;4.40;;;;;;;26.55;37.55;100209.72;123543;1099;104265;-79
2022/07/06 00:28:44;;;;;;;11.33;4.60;;;;;;;26.55;37.51;100201.66;123543;1098;104274;-79
2022/07/06 00:31:16;;;;;;;10.20;4.50;;;;;;;26.54;37.50;100207.09;123491;1099;104268;-79
2022/07/06 00:33:48;;;;;;;11.93;4.90;;;;;;;26.54;37.72;100201.70;123569;1099;104287;-79
2022/07/06 00:36:19;;;;;;;11.50;4.60;;;;;;;26.50;37.33;100195.53;123473;1099;104383;-79
2022/07/06 00:38:51;;;;;;;12.43;4.90;;;;;;;26.48;37.58;100199.23;123520;1096;104264;-79
2022/07/06 00:41:22;;;;;;;10.87;4.37;;;;;;;26.46;37.50;100195.70;123505;1096;104259;-79
2022/07/06 00:43:56;;;;;;;11.83;4.87;;;;;;;26.43;37.32;100195.80;123546;1096;104313;-79
2022/07/06 00:46:31;;;;;;;8.03;4.47;;;;;;;26.37;37.51;100195.09;123530;1099;104341;-79
2022/07/06 00:49:03;;;;;;;15.43;4.80;;;;;;;26.32;37.86;100189.00;123568;1099;104267;-79
2022/07/06 00:51:37;;;;;;;10.07;4.33;;;;;;;26.30;37.85;100200.73;123649;1099;104322;-79
2022/07/06 00:54:09;;;;;;;12.03;4.40;;;;;;;26.28;37.37;100187.34;123660;1099;104291;-79
2022/07/06 00:56:40;;;;;;;7.13;4.43;;;;;;;26.25;37.32;100186.58;123549;1098;104338;-79
2022/07/06 00:59:12;;;;;;;8.87;4.17;;;;;;;26.22;37.65;100187.55;123644;1099;104213;-79
2022/07/06 01:01:43;;;;;;;15.03;4.33;;;;;;;26.23;37.47;100180.38;123622;1099;104473;-79
2022/07/06 01:04:14;;;;;;;10.67;4.60;;;;;;;26.23;37.34;100185.76;123719;1099;104296;-79
2022/07/06 01:06:49;;;;;;;8.27;4.17;;;;;;;26.23;37.77;100185.76;123569;1098;104427;-79
2022/07/06 01:09:20;;;;;;;7.57;4.60;;;;;;;26.22;37.41;100186.68;123575;1099;104293;-79
2022/07/06 01:11:53;;;;;;;10.10;4.70;;;;;;;26.18;37.80;100175.16;123534;1098;104283;-79
2022/07/06 01:14:25;;;;;;;8.78;4.60;;;;;;;26.10;38.00;100169.14;123454;1099;104277;-79
2022/07/06 01:16:57;;;;;;;11.30;4.70;;;;;;;26.09;37.76;100170.09;123517;1099;104315;-79
2022/07/06 01:19:29;;;;;;;10.25;4.20;;;;;;;26.08;38.02;100171.01;123467;1099;104309;-79
2022/07/06 01:22:00;;;;;;;14.87;4.50;;;;;;;26.06;37.79;100170.20;123574;1099;104268;-79
2022/07/06 01:24:32;;;;;;;11.70;4.60;;;;;;;26.06;37.57;100176.44;123607;1099;104335;-79
2022/07/06 01:27:04;;;;;;;7.03;4.50;;;;;;;26.06;38.09;100173.75;123546;1099;104252;-79
2022/07/06 01:29:36;;;;;;;13.67;4.53;;;;;;;26.01;38.09;100178.41;123521;1096;104235;-79
2022/07/06 01:32:09;;;;;;;14.50;4.57;;;;;;;25.97;37.83;100182.09;123537;1098;104342;-79
2022/07/06 01:34:41;;;;;;;8.43;4.10;;;;;;;25.91;37.52;100177.78;123598;1099;104259;-79
2022/07/06 01:37:13;;;;;;;7.17;3.93;;;;;;;25.91;37.67;100171.54;123477;1098;104310;-79
2022/07/06 01:39:44;;;;;;;11.77;4.60;;;;;;;25.89;37.72;100176.09;123474;1099;104366;-80
2022/07/06 01:42:17;;;;;;;6.80;4.23;;;;;;;25.86;38.06;100170.82;123542;1096;104332;-80
2022/07/06 01:44:49;;;;;;;10.23;4.25;;;;;;;25.88;37.75;100171.64;123557;1097;104261;-79
2022/07/06 01:47:21;;;;;;;11.03;4.70;;;;;;;25.87;37.90;100169.87;123696;1096;104277;-80
2022/07/06 01:49:53;;;;;;;8.33;4.65;;;;;;;25.83;38.08;100167.28;123759;1097;104313;-80
2022/07/06 01:52:26;;;;;;;9.15;4.30;;;;;;;25.80;37.93;100162.04;123741;1099;104216;-80
2022/07/06 01:54:58;;;;;;;9.33;4.87;;;;;;;25.80;38.48;100163.83;123586;1099;104328;-80
2022/07/06 01:57:29;;;;;;;13.60;4.77;;;;;;;25.75;38.19;100161.28;123518;1099;104287;-79
2022/07/06 02:00:01;;;;;;;13.70;4.60;;;;;;;25.68;38.17;100165.13;123504;1099;104325;-79
2022/07/06 02:02:33;;;;;;;9.07;4.70;;;;;;;25.65;38.44;100155.34;123494;1099;104316;-80
2022/07/06 02:05:04;;;;;;;12.43;4.83;;;;;;;25.63;38.64;100156.30;123449;1099;104411;-79
2022/07/06 02:07:36;;;;;;;10.50;4.80;;;;;;;25.63;38.62;100159.89;123534;1098;104245;-79
2022/07/06 02:10:09;;;;;;;15.10;4.83;;;;;;;25.61;38.64;100153.67;123559;1099;104229;-79
2022/07/06 02:12:40;;;;;;;12.70;4.75;;;;;;;25.60;38.80;100151.03;123513;1099;104289;-79
2022/07/06 02:15:12;;;;;;;12.17;5.00;;;;;;;25.58;38.77;100147.53;123536;1099;104339;-79
2022/07/06 02:17:44;;;;;;;15.63;5.27;;;;;;;25.55;38.88;100156.55;123530;1099;104405;-79
2022/07/06 02:20:16;;;;;;;15.15;5.30;;;;;;;25.55;38.94;100158.37;123458;1099;104316;-78
2022/07/06 02:22:47;;;;;;;;;;;;;;;25.51;39.25;100156.70;123528;1096;104715;-79
2022/07/06 02:25:19;;;;;;;15.35;5.20;;;;;;;25.50;39.60;100149.59;123517;1099;104293;-79
2022/07/06 02:27:51;;;;;;;23.83;6.27;;;;;;;25.47;39.52;100153.23;123556;1099;104274;-79
2022/07/06 02:30:23;;;;;;;21.43;6.53;;;;;;;25.47;39.74;100145.18;123458;1099;104384;-79
2022/07/06 02:32:54;;;;;;;20.90;6.67;;;;;;;25.44;39.67;100156.02;123502;1099;104223;-79
2022/07/06 02:35:26;;;;;;;20.97;6.20;;;;;;;25.42;39.74;100158.75;123516;1099;104380;-79
2022/07/06 02:37:57;;;;;;;24.60;7.00;;;;;;;25.38;39.93;100162.45;123569;1097;104176;-79
2022/07/06 02:40:29;;;;;;;16.60;6.00;;;;;;;25.35;40.30;100162.54;123488;1099;104578;-79
2022/07/06 02:43:00;;;;;;;22.97;6.33;;;;;;;25.33;40.50;100172.46;123463;1099;106966;-79
2022/07/06 02:45:32;;;;;;;23.93;6.43;;;;;;;25.34;40.61;100155.44;123516;1096;104297;-79
2022/07/06 02:48:04;;;;;;;21.30;5.90;;;;;;;25.33;40.56;100161.72;123532;1099;104342;-79
2022/07/06 02:50:35;;;;;;;19.93;6.33;;;;;;;25.33;40.73;100153.66;123687;1099;104319;-80
2022/07/06 02:53:07;;;;;;;22.43;7.30;;;;;;;25.35;40.90;100156.30;123560;1099;104677;-78
2022/07/06 02:55:39;;;;;;;25.87;6.80;;;;;;;25.37;41.02;100163.39;123698;1099;104418;-80
2022/07/06 02:58:11;;;;;;;24.53;6.57;;;;;;;25.37;41.32;100158.02;123537;1098;104434;-79
2022/07/06 03:00:42;;;;;;;31.65;7.80;;;;;;;25.36;41.37;100164.31;123407;1099;104399;-80
2022/07/06 03:03:14;;;;;;;29.07;7.47;;;;;;;25.36;41.27;100164.31;123492;1099;104390;-80
2022/07/06 03:05:48;;;;;;;24.27;6.83;;;;;;;25.34;40.80;100158.13;123601;1099;104421;-80
2022/07/06 03:08:20;;;;;;;32.17;7.77;;;;;;;25.35;41.27;100157.17;123401;1099;104284;-79
2022/07/06 03:10:53;;;;;;;42.40;8.50;;;;;;;25.38;41.00;100156.20;123469;1099;104271;-79
2022/07/06 03:13:24;;;;;;;50.03;10.63;;;;;;;25.37;41.34;100155.34;123455;1099;104424;-80
2022/07/06 03:15:56;;;;;;;29.03;8.27;;;;;;;25.37;40.91;100160.70;123717;1099;104345;-80
2022/07/06 03:18:28;;;;;;;24.77;7.17;;;;;;;25.36;41.14;100175.05;123456;1099;104293;-80
2022/07/06 03:21:00;;;;;;;21.27;6.83;;;;;;;25.35;41.58;100172.41;123373;1100;104420;-79
2022/07/06 03:23:32;;;;;;;19.60;5.77;;;;;;;25.32;41.16;100168.01;123286;1102;104424;-79
2022/07/06 03:26:04;;;;;;;19.53;5.37;;;;;;;25.29;40.97;100162.73;123188;1102;104406;-79
2022/07/06 03:28:36;;;;;;;20.37;5.87;;;;;;;25.28;41.49;100160.95;123257;1102;104840;-79
2022/07/06 03:31:07;;;;;;;16.60;5.70;;;;;;;25.32;41.27;100156.39;123314;1099;104261;-80
2022/07/06 03:33:39;;;;;;;16.10;5.50;;;;;;;25.35;41.28;100156.30;123223;1099;104428;-80
2022/07/06 03:36:12;;;;;;;19.10;5.70;;;;;;;25.38;41.11;100151.70;123268;1099;104374;-80
2022/07/06 03:38:44;;;;;;;15.48;5.72;;;;;;;25.40;41.20;100151.66;123296;1099;104238;-81
2022/07/06 03:41:16;;;;;;;19.03;5.50;;;;;;;25.43;41.38;100159.63;123615;1099;104620;-81
2022/07/06 03:43:48;;;;;;;13.00;5.47;;;;;;;25.43;41.18;100155.15;123734;1099;104271;-80
2022/07/06 03:46:20;;;;;;;15.47;5.57;;;;;;;25.44;41.62;100162.26;123533;1099;104299;-79
2022/07/06 03:48:54;;;;;;;22.87;5.50;;;;;;;25.42;41.29;100164.12;123814;1099;104351;-80
2022/07/06 03:51:25;;;;;;;20.75;5.95;;;;;;;25.45;41.56;100164.03;123837;1099;104520;-80
2022/07/06 03:53:58;;;;;;;12.53;5.13;;;;;;;25.50;41.43;100149.59;124217;1099;105653;-79
2022/07/06 03:56:29;;;;;;;19.50;5.30;;;;;;;25.56;41.28;100154.77;123946;1099;104344;-79
2022/07/06 03:59:05;;;;;;;26.60;5.43;;;;;;;25.61;40.99;100163.55;123793;1099;104393;-79
2022/07/06 04:01:39;;;;;;;28.37;5.77;;;;;;;25.67;40.79;100159.80;123824;1099;104637;-80
2022/07/06 04:04:10;;;;;;;101.00;10.50;;;;;;;25.71;40.96;100146.22;123768;1099;105057;-79
2022/07/06 04:06:43;;;;;;;42.83;5.58;;;;;;;25.76;40.73;100152.31;123858;1099;104242;-79
2022/07/06 04:09:15;;;;;;;14.73;4.77;;;;;;;25.80;40.80;100140.54;123726;1099;104294;-79
2022/07/06 04:11:47;;;;;;;16.70;5.20;;;;;;;25.86;40.48;100147.50;123672;1099;104518;-80
2022/07/06 04:14:18;;;;;;;17.00;4.90;;;;;;;25.91;40.57;100141.97;123576;1099;104259;-79
2022/07/06 04:16:50;;;;;;;13.50;4.83;;;;;;;25.95;40.69;100140.95;123380;1099;104443;-78
2022/07/06 04:19:21;;;;;;;14.40;4.73;;;;;;;26.00;40.79;100144.39;123735;1099;104309;-79
2022/07/06 04:21:55;;;;;;;15.07;5.30;;;;;;;26.03;40.83;100144.28;123959;1099;104424;-80
2022/07/06 04:24:28;;;;;;;9.60;4.80;;;;;;;26.07;40.79;100140.57;124248;1099;104430;-80
2022/07/06 04:26:59;;;;;;;14.97;4.53;;;;;;;26.12;40.43;100140.41;124718;1099;104437;-80
2022/07/06 04:29:32;;;;;;;16.17;4.70;;;;;;;26.16;40.22;100129.50;124495;1099;104229;-79
2022/07/06 04:32:08;;;;;;;17.12;5.40;;;;;;;26.22;40.68;100132.90;124380;1099;104456;-79
2022/07/06 04:34:43;;;;;;;18.23;5.27;;;;;;;26.27;40.21;100128.23;124561;1099;102966;-80
2022/07/06 04:37:14;;;;;;;19.67;5.23;;;;;;;26.31;40.81;100138.82;124281;1099;104453;-79
2022/07/06 04:39:46;;;;;;;15.20;5.13;;;;;;;26.37;40.64;100137.73;124534;1099;104849;-78
2022/07/06 04:42:18;;;;;;;11.07;4.83;;;;;;;26.41;40.15;100131.30;124278;1099;104377;-79
2022/07/06 04:44:51;;;;;;;14.67;5.00;;;;;;;26.45;40.31;100127.58;124579;1099;104361;-79
2022/07/06 04:47:24;;;;;;;12.13;4.87;;;;;;;26.50;40.34;100122.90;124257;1099;104265;-79
2022/07/06 04:49:55;;;;;;;13.23;5.00;;;;;;;26.55;40.52;100126.32;124476;1099;104564;-78
2022/07/06 04:52:27;;;;;;;15.47;5.70;;;;;;;26.60;40.11;100133.33;123835;1099;104609;-78
2022/07/06 04:54:59;;;;;;;15.47;5.80;;;;;;;26.65;40.09;100128.67;124774;1099;104232;-79
2022/07/06 04:57:31;;;;;;;14.07;5.30;;;;;;;26.72;40.38;100133.81;125671;1099;104316;-78
2022/07/06 05:00:04;;;;;;;14.93;5.20;;;;;;;26.77;40.10;100130.05;124479;1099;104207;-78
2022/07/06 05:02:36;;;;;;;14.25;4.97;;;;;;;26.84;40.16;100136.97;124366;1099;104431;-78
2022/07/06 05:05:12;;;;;;;17.17;5.17;;;;;;;26.90;39.90;100142.13;124459;1099;104440;-79
2022/07/06 05:07:46;;;;;;;19.17;5.57;;;;;;;26.97;39.73;100134.69;125725;1099;104540;-79
2022/07/06 05:10:23;;;;;;;16.13;5.50;;;;;;;27.04;39.66;100144.30;125630;1099;104284;-79
2022/07/06 05:13:00;;;;;;;12.77;4.97;;;;;;;27.14;40.18;100142.12;125597;1099;104112;-78
2022/07/06 05:15:32;;;;;;;13.03;5.10;;;;;;;27.20;39.88;100140.05;125255;1099;104519;-78
2022/07/06 05:18:07;;;;;;;14.60;5.27;;;;;;;27.30;39.70;100139.70;124777;1099;104281;-78
2022/07/06 05:20:39;;;;;;;9.25;4.60;;;;;;;27.36;38.84;100142.18;125488;1099;104159;-78
2022/07/06 05:23:11;;;;;;;9.37;4.37;;;;;;;27.42;38.39;100128.47;124505;1099;104217;-78
2022/07/06 05:25:47;;;;;;;11.57;3.87;;;;;;;27.48;38.25;100130.91;124561;1099;104245;-79
2022/07/06 05:28:24;;;;;;;9.20;4.23;;;;;;;27.56;38.15;100130.61;126410;1099;102052;-79
2022/07/06 05:31:00;;;;;;;10.83;4.40;;;;;;;27.63;38.11;100132.13;117111;1099;10001979;-77
2022/07/06 05:33:50;;;;;;;11.67;4.30;;;;;;;27.69;37.81;100130.97;126107;1098;102833;-79
2022/07/06 05:36:27;;;;;;;11.20;4.00;;;;;;;27.78;37.33;100128.80;125149;1099;118956;-79
2022/07/06 05:38:58;;;;;;;;;;;;;;;27.87;37.23;100132.91;124519;1101;104208;-78
2022/07/06 05:41:46;;;;;;;10.17;4.43;;;;;;;27.94;37.43;100131.72;125591;1102;103701;-80
2022/07/06 05:44:20;;;;;;;7.30;3.90;;;;;;;28.02;37.40;100128.73;125313;1102;104386;-81
2022/07/06 05:50:11;;;;;;;10.23;4.17;;;;;;;28.09;36.96;100132.91;125321;1102;102829;-81
2022/07/06 05:52:38;;;;;;;12.93;4.50;;;;;;;28.20;36.96;100126.18;125316;1102;104187;-80
2022/07/06 05:55:15;;;;;;;13.50;4.20;;;;;;;28.24;36.87;100127.81;125414;1102;104201;-82
2022/07/06 05:57:50;;;;;;;10.63;4.40;;;;;;;28.28;36.76;100122.22;125686;1103;103110;-83
2022/07/06 06:00:29;;;;;;;13.10;4.50;;;;;;;28.35;36.32;100127.34;125629;1102;102821;-83
2022/07/06 06:03:16;;;;;;;8.73;4.27;;;;;;;28.40;36.07;100122.61;125406;1102;103026;-79
2022/07/06 06:05:52;;;;;;;11.37;4.70;;;;;;;28.49;36.21;100116.80;125302;1102;104313;-78
2022/07/06 06:08:28;;;;;;;12.67;4.73;;;;;;;28.56;36.05;100112.86;125625;1103;102473;-82
2022/07/06 06:11:19;;;;;;;10.20;4.20;;;;;;;28.62;35.96;100107.22;125061;1102;104325;-80
2022/07/06 06:14:17;;;;;;;12.33;4.37;;;;;;;28.69;36.30;100113.24;125339;1102;102652;-80
2022/07/06 06:16:59;;;;;;;11.50;4.70;;;;;;;28.77;35.95;100105.66;125979;1105;103396;-80
2022/07/06 06:19:39;;;;;;;12.80;4.77;;;;;;;28.85;36.09;100113.41;126007;1102;103037;-80
2022/07/06 06:22:35;;;;;;;16.70;5.10;;;;;;;28.93;36.07;100089.61;126073;1102;102549;-80
2022/07/06 06:25:29;;;;;;;12.13;4.90;;;;;;;29.03;35.98;100090.94;125444;1102;102379;-80
2022/07/06 06:28:10;;;;;;;15.33;4.60;;;;;;;29.10;35.69;100093.34;125426;1102;104134;-80
2022/07/06 06:30:43;;;;;;;9.90;4.40;;;;;;;29.15;35.62;100093.99;125293;1102;104337;-78
2022/07/06 06:33:20;;;;;;;16.60;5.00;;;;;;;29.22;35.64;100098.20;125391;1101;103595;-79
2022/07/06 06:36:01;;;;;;;12.70;4.70;;;;;;;29.29;35.78;100094.23;125843;1102;103077;-79
2022/07/06 06:39:02;;;;;;;12.63;4.50;;;;;;;29.37;35.46;100091.16;125407;1099;104176;-79
2022/07/06 06:41:37;;;;;;;;;;;;;;;29.42;35.01;100085.52;126134;1099;104201;-80
2022/07/06 06:44:17;;;;;;;15.03;4.77;;;;;;;29.50;35.49;100094.12;126107;1099;103124;-81
2022/07/06 06:46:55;;;;;;;9.00;4.40;;;;;;;29.58;35.40;100086.53;125962;1099;104008;-80
2022/07/06 06:49:49;;;;;;;12.93;4.60;;;;;;;29.63;35.26;100089.87;126050;1099;104192;-79
2022/07/06 06:52:30;;;;;;;9.33;4.30;;;;;;;29.69;35.32;100092.27;117368;1099;10001611;-79
2022/07/06 06:55:18;;;;;;;17.90;4.77;;;;;;;29.78;34.99;100092.74;125681;1099;103206;-80
2022/07/06 06:58:25;;;;;;;15.03;4.80;;;;;;;29.89;34.67;100087.72;125517;1099;102509;-79
2022/07/06 07:01:15;;;;;;;;;;;;;;;;;;;;;
2022/07/06 07:04:13;;;;;;;9.47;4.50;;;;;;;30.14;34.62;100086.42;126292;1099;102569;-80
2022/07/06 07:06:58;;;;;;;9.83;3.97;;;;;;;30.26;34.38;100089.38;125719;1099;104227;-80
2022/07/06 07:09:40;;;;;;;11.33;4.50;;;;;;;30.38;34.09;100090.54;125495;1099;104216;-79
2022/07/06 07:12:14;;;;;;;12.23;4.67;;;;;;;30.50;33.62;100089.05;125620;1099;104239;-80
2022/07/06 07:15:06;;;;;;;11.83;4.27;;;;;;;30.63;33.51;100097.38;126372;1098;102428;-82
2022/07/06 07:18:23;;;;;;;7.93;4.10;;;;;;;30.79;33.38;100095.59;126194;1099;103171;-80
2022/07/06 07:21:07;;;;;;;13.47;4.90;;;;;;;30.97;32.38;100095.56;126487;1099;102429;-81
2022/07/06 07:24:10;;;;;;;10.83;4.27;;;;;;;31.11;31.83;100092.08;126288;1099;102720;-81
2022/07/06 07:26:56;;;;;;;8.63;4.03;;;;;;;31.28;31.97;100089.28;126244;1099;104235;-82
2022/07/06 07:29:42;;;;;;;9.13;4.00;;;;;;;31.42;31.43;100091.20;126302;1098;104697;-81
2022/07/06 07:32:19;;;;;;;6.47;4.40;;;;;;;31.54;30.72;100095.94;126312;1099;102999;-80
2022/07/06 07:34:58;;;;;;;10.77;4.10;;;;;;;31.70;30.74;100086.91;125615;1099;103525;-80
2022/07/06 07:37:31;;;;;;;8.17;4.17;;;;;;;31.86;30.28;100092.29;125215;1099;102686;-81
2022/07/06 07:40:11;;;;;;;7.97;4.10;;;;;;;32.03;30.15;100091.28;124825;1099;104421;-80
2022/07/06 07:43:13;;;;;;;10.30;3.97;;;;;;;32.25;29.98;100088.16;125566;1103;102544;-81
2022/07/06 07:46:00;;;;;;;8.53;4.83;;;;;;;32.48;29.69;100092.17;125443;1102;103494;-81
2022/07/06 07:48:46;;;;;;;6.90;4.20;;;;;;;32.59;28.78;100091.50;125388;1099;104185;-79
2022/07/06 07:51:26;;;;;;;11.87;4.33;;;;;;;32.75;28.66;100088.72;125249;1102;103655;-78
2022/07/06 07:54:05;;;;;;;12.90;4.07;;;;;;;32.88;28.47;100100.56;125341;1102;102463;-81
2022/07/06 07:56:42;;;;;;;;;;;;;;;33.05;27.92;100090.42;125371;1102;102539;-82
2022/07/06 07:59:25;;;;;;;;;;;;;;;33.13;26.27;100090.83;125276;1102;103143;-81
2022/07/06 08:02:12;;;;;;;10.77;3.80;;;;;;;33.30;27.31;100082.46;125188;1102;102891;-81
2022/07/06 08:04:48;;;;;;;6.60;3.70;;;;;;;33.48;27.20;100093.08;125394;1102;102609;-80
2022/07/06 08:07:21;;;;;;;6.43;3.37;;;;;;;33.63;26.32;100081.18;125270;1103;102373;-80
2022/07/06 08:09:54;;;;;;;5.75;3.10;;;;;;;33.77;25.52;100082.11;125460;1102;103052;-81
2022/07/06 08:12:32;;;;;;;4.60;3.10;;;;;;;33.91;24.69;100079.34;125283;1102;104268;-82
2022/07/06 08:15:07;;;;;;;8.23;3.37;;;;;;;34.06;24.56;100079.25;125122;1102;102798;-81
2022/07/06 08:17:43;;;;;;;6.63;2.90;;;;;;;34.10;24.33;100075.34;125178;1102;105113;-80
2022/07/06 08:20:22;;;;;;;6.90;3.07;;;;;;;34.28;23.06;100071.34;125234;1102;103280;-79
2022/07/06 08:23:18;;;;;;;4.90;2.97;;;;;;;34.45;22.97;100077.45;124751;1102;103881;-82
2022/07/06 08:26:13;;;;;;;7.20;3.10;;;;;;;34.54;22.11;100071.36;125337;1102;102920;-83
2022/07/06 08:29:14;;;;;;;6.83;3.40;;;;;;;34.66;22.15;100075.06;125336;1102;104229;-79
2022/07/06 08:31:52;;;;;;;6.00;3.20;;;;;;;34.70;21.68;100072.02;125980;1101;103123;-80
2022/07/06 08:34:25;;;;;;;10.33;3.53;;;;;;;34.79;21.92;100078.66;125266;1099;104162;-79
2022/07/06 08:36:57;;;;;;;;;;;;;;;34.90;21.81;100070.56;125381;1102;104403;-81
2022/07/06 08:39:46;;;;;;;6.00;3.00;;;;;;;35.00;22.17;100067.16;125219;1099;105426;-81
2022/07/06 08:42:33;;;;;;;4.97;3.20;;;;;;;35.12;21.99;100068.13;125300;1099;104422;-81
2022/07/06 08:45:13;;;;;;;7.63;3.80;;;;;;;35.26;21.90;100068.00;125339;1099;104395;-81
2022/07/06 08:47:58;;;;;;;5.60;3.17;;;;;;;35.38;21.71;100072.53;125474;1102;102595;-81
2022/07/06 08:50:34;;;;;;;6.47;3.30;;;;;;;35.40;21.62;100067.82;125640;1099;102382;-79
2022/07/06 08:53:15;;;;;;;6.80;3.30;;;;;;;35.45;21.79;100067.48;125345;1102;102647;-79
2022/07/06 08:55:59;;;;;;;8.13;3.40;;;;;;;35.52;21.40;100059.72;125552;1103;102557;-80
2022/07/06 08:58:36;;;;;;;7.33;3.13;;;;;;;35.59;20.93;100067.32;125919;1102;102932;-80
2022/07/06 09:01:18;;;;;;;7.37;3.57;;;;;;;35.67;20.85;100065.84;125469;1102;103110;-81
2022/07/06 09:03:57;;;;;;;6.40;3.47;;;;;;;35.70;20.33;100069.23;125580;1102;104210;-81
2022/07/06 09:06:32;;;;;;;8.10;3.43;;;;;;;35.75;20.72;100069.74;125626;1102;104261;-81
2022/07/06 09:09:14;;;;;;;7.13;3.43;;;;;;;35.85;20.28;100061.73;125218;1102;102186;-80
2022/07/06 09:11:50;;;;;;;14.73;4.27;;;;;;;35.93;20.49;100064.73;125255;1102;102678;-80
2022/07/06 09:14:47;;;;;;;6.73;3.60;;;;;;;35.94;19.77;100071.08;125468;1103;103117;-80
2022/07/06 09:17:35;;;;;;;5.27;3.73;;;;;;;35.95;20.00;100068.23;125472;1101;104129;-81
2022/07/06 09:20:20;;;;;;;5.07;3.30;;;;;;;36.01;20.04;100066.87;125629;1102;104178;-79
2022/07/06 09:23:21;;;;;;;7.30;3.70;;;;;;;35.94;19.47;100060.16;125403;1099;104179;-80
2022/07/06 09:26:03;;;;;;;8.77;3.50;;;;;;;35.98;19.81;100058.91;125831;1099;102684;-81
2022/07/06 09:29:00;;;;;;;6.83;3.70;;;;;;;36.02;19.52;100052.23;125551;1100;102941;-80
2022/07/06 09:31:56;;;;;;;7.67;4.23;;;;;;;36.10;19.13;100051.64;126157;1099;104294;-81
2022/07/06 09:34:49;;;;;;;5.07;3.90;;;;;;;36.14;19.28;100050.41;126589;1099;103123;-80
2022/07/06 09:38:05;;;;;;;6.63;3.70;;;;;;;36.23;19.52;100046.95;126594;1099;103081;-81
2022/07/06 09:40:54;;;;;;;9.30;3.70;;;;;;;36.18;18.93;100046.43;126266;1097;104184;-81
2022/07/06 09:47:14;;;;;;;7.90;3.57;;;;;;;36.16;18.82;100046.55;125808;1102;102741;-82
2022/07/06 09:50:16;;;;;;;5.47;3.93;;;;;;;36.22;18.81;100042.48;126253;1099;102651;-80
2022/07/06 09:53:08;;;;;;;7.27;3.70;;;;;;;36.26;18.92;100041.28;126817;1099;102891;-82
2022/07/06 09:56:00;;;;;;;10.83;3.70;;;;;;;36.29;18.52;100040.15;126894;1098;102521;-81
2022/07/06 09:58:52;;;;;;;6.03;3.67;;;;;;;36.27;18.31;100032.08;126905;1098;102008;-83
2022/07/06 10:01:37;;;;;;;13.23;4.13;;;;;;;36.20;18.06;100032.66;125964;1099;103681;-81
2022/07/06 10:04:47;;;;;;;10.15;4.20;;;;;;;36.19;18.18;100039.12;126158;1099;104269;-81
2022/07/06 10:07:25;;;;;;;4.77;3.73;;;;;;;36.18;18.10;100019.13;126106;1099;102233;-80
2022/07/06 10:10:10;;;;;;;14.87;4.07;;;;;;;36.21;17.92;100032.53;126224;1099;102860;-80
2022/07/06 10:12:50;;;;;;;7.20;3.80;;;;;;;36.27;18.81;100025.76;125442;1099;103391;-81
2022/07/06 10:15:23;;;;;;;4.97;3.97;;;;;;;36.27;18.26;100026.62;126212;1099;104273;-81
2022/07/06 10:17:56;;;;;;;8.83;3.80;;;;;;;36.33;18.24;100019.80;125872;1099;104031;-81
2022/07/06 10:20:38;;;;;;;6.67;4.23;;;;;;;36.34;18.23;100025.15;126278;1096;103347;-80
2022/07/06 10:23:15;;;;;;;3.97;3.57;;;;;;;36.31;18.22;100013.61;126330;1099;103560;-80
2022/07/06 10:25:50;;;;;;;6.90;3.93;;;;;;;36.31;17.80;100016.34;126166;1099;102801;-79
2022/07/06 10:28:23;;;;;;;6.27;3.70;;;;;;;36.28;17.97;100016.59;126056;1099;102671;-80
2022/07/06 10:30:53;;;;;;;;;;;;;;;36.24;17.66;100013.17;126060;1099;104156;-81
2022/07/06 10:33:28;;;;;;;6.70;3.93;;;;;;;36.30;18.24;100011.86;126293;1099;102140;-81
2022/07/06 10:36:01;;;;;;;9.30;4.28;;;;;;;36.34;17.66;100021.55;126028;1099;104265;-80
2022/07/06 10:38:36;;;;;;;8.83;4.13;;;;;;;36.42;17.87;99999.05;126267;1099;104034;-80
2022/07/06 10:41:41;;;;;;;8.93;4.07;;;;;;;36.44;17.97;100006.14;125977;1099;104360;-81
2022/07/06 10:44:49;;;;;;;7.17;4.20;;;;;;;36.32;18.14;100012.59;126160;1099;103789;-79
2022/07/06 10:47:39;;;;;;;6.90;3.90;;;;;;;36.07;18.03;100008.19;126099;1098;103468;-80
2022/07/06 10:50:23;;;;;;;7.97;4.00;;;;;;;35.98;17.69;99996.13;126240;1099;104236;-80
2022/07/06 10:52:59;;;;;;;7.27;3.97;;;;;;;36.05;18.03;100007.45;126216;1099;104232;-79
2022/07/06 10:55:37;;;;;;;7.20;3.87;;;;;;;36.17;18.25;100001.88;125249;1099;104281;-79
2022/07/06 10:58:25;;;;;;;6.10;4.00;;;;;;;36.25;17.92;100006.77;126218;1099;104130;-80
2022/07/06 11:01:01;;;;;;;5.97;4.13;;;;;;;36.33;17.87;100004.28;125900;1099;104388;-81
2022/07/06 11:03:37;;;;;;;6.53;3.97;;;;;;;36.35;18.01;99996.81;125559;1102;121219;-80
2022/07/06 11:06:17;;;;;;;7.10;4.17;;;;;;;36.42;17.81;99991.75;125510;1099;104126;-81
2022/07/06 11:08:57;;;;;;;7.07;4.33;;;;;;;36.46;17.96;99997.83;126048;1099;103459;-80
2022/07/06 11:11:42;;;;;;;10.03;4.10;;;;;;;36.57;18.53;99999.69;126074;1099;103211;-79
2022/07/06 11:14:24;;;;;;;6.33;3.63;;;;;;;36.67;17.51;99981.55;126070;1099;104156;-80
2022/07/06 11:17:12;;;;;;;14.43;4.40;;;;;;;36.72;17.71;99986.64;125917;1099;104335;-81
2022/07/06 11:19:59;;;;;;;11.80;3.90;;;;;;;36.72;17.50;99982.03;125912;1096;103023;-81
2022/07/06 11:22:39;;;;;;;9.43;4.10;;;;;;;36.75;17.41;99975.49;125922;1096;104242;-79
2022/07/06 11:25:15;;;;;;;;;;;;;;;36.65;17.34;99980.79;125977;1098;104201;-79
2022/07/06 11:27:51;;;;;;;4.60;3.83;;;;;;;36.41;17.43;99975.48;125857;1099;104165;-79
2022/07/06 11:30:39;;;;;;;6.00;3.70;;;;;;;36.21;17.54;99977.91;125875;1098;104128;-79
2022/07/06 11:33:42;;;;;;;5.03;3.80;;;;;;;36.08;17.64;99967.11;125873;1096;104299;-80
2022/07/06 11:36:22;;;;;;;5.43;4.00;;;;;;;36.13;17.93;99962.14;126197;1099;103266;-80
2022/07/06 11:39:05;;;;;;;10.77;4.27;;;;;;;36.34;18.13;99945.94;126150;1099;103739;-79
2022/07/06 11:41:40;;;;;;;6.90;3.73;;;;;;;36.45;17.92;99947.79;125963;1099;102824;-79
2022/07/06 11:44:16;;;;;;;10.90;4.63;;;;;;;36.52;17.70;99949.00;125905;1099;119785;-79
2022/07/06 11:47:01;;;;;;;10.40;4.37;;;;;;;36.65;17.53;99946.16;125954;1097;102724;-80
2022/07/06 11:49:38;;;;;;;;;;;;;;;36.76;17.21;99945.30;126173;1099;104185;-79
2022/07/06 11:52:14;;;;;;;8.93;4.20;;;;;;;36.79;17.66;99942.31;125871;1099;104191;-78
2022/07/06 11:54:49;;;;;;;8.30;4.10;;;;;;;36.81;17.63;99948.51;125876;1098;104200;-80
2022/07/06 11:57:22;;;;;;;6.27;4.03;;;;;;;36.74;17.71;99941.80;125909;1099;104026;-78
2022/07/06 11:59:56;;;;;;;9.93;3.90;;;;;;;36.57;17.74;99945.03;125775;1099;104211;-79
2022/07/06 12:02:30;;;;;;;7.53;4.33;;;;;;;36.33;17.59;99938.72;125901;1099;103290;-81
2022/07/06 12:05:07;;;;;;;9.40;3.83;;;;;;;36.19;17.82;99949.02;126082;1099;104060;-79